4XSCX LLHZ-LLHZ

Flight info

Callsign 4XSCX
Flight time 0h 4m
Altitude 800
Route ROUNDERS
Aircraft C172/L-V/N

Departure

Time 2026-04-25 11:09
Airport Herzliya Airport (LLHZ)

Arrival

Time 2026-04-25 11:14
Airport Herzliya Airport (LLHZ)
Time Latitude Longitude Altitude Speed Heading
2026-04-25 11:04 32.17915 34.83663 119 ft 0 kts 112°
2026-04-25 11:06 32.17913 34.83670 119 ft 0 kts 84°
2026-04-25 11:07 32.17924 34.83683 119 ft 2 kts 84°
2026-04-25 11:07 32.17911 34.83741 121 ft 15 kts 113°
2026-04-25 11:07 32.17886 34.83821 123 ft 9 kts 108°
2026-04-25 11:07 32.17886 34.83861 124 ft 3 kts 29°
2026-04-25 11:08 32.17913 34.83848 124 ft 9 kts 292°
2026-04-25 11:08 32.17977 34.83635 117 ft 49 kts 288°
2026-04-25 11:08 32.18108 34.83180 217 ft 57 kts 283°
2026-04-25 11:08 32.18331 34.82832 331 ft 61 kts 343°
2026-04-25 11:09 32.18785 34.83003 425 ft 70 kts 17°
2026-04-25 11:09 32.19192 34.83284 560 ft 71 kts 41°
2026-04-25 11:09 32.19211 34.83900 634 ft 86 kts 107°
2026-04-25 11:09 32.18942 34.84533 772 ft 84 kts 119°
2026-04-25 11:10 32.18617 34.85114 765 ft 86 kts 134°
2026-04-25 11:10 32.18267 34.85278 731 ft 77 kts 192°
2026-04-25 11:10 32.17687 34.84970 590 ft 61 kts 250°
2026-04-25 11:10 32.17724 34.84488 360 ft 59 kts 290°
2026-04-25 11:11 32.17859 34.84040 191 ft 55 kts 289°
2026-04-25 11:11 32.17974 34.83642 117 ft 52 kts 289°
2026-04-25 11:11 32.18127 34.83156 185 ft 64 kts 288°
2026-04-25 11:11 32.18382 34.82803 351 ft 60 kts 345°
2026-04-25 11:12 32.18850 34.82960 390 ft 78 kts 14°
2026-04-25 11:12 32.19301 34.83329 538 ft 84 kts 60°
2026-04-25 11:12 32.19251 34.84014 678 ft 88 kts 115°
2026-04-25 11:12 32.18949 34.84634 795 ft 87 kts 125°
2026-04-25 11:13 32.18574 34.85209 771 ft 89 kts 133°
2026-04-25 11:13 32.18092 34.85413 736 ft 70 kts 207°
2026-04-25 11:13 32.17724 34.85084 620 ft 63 kts 230°
2026-04-25 11:13 32.17687 34.84631 422 ft 61 kts 291°
2026-04-25 11:14 32.17818 34.84175 245 ft 56 kts 289°
2026-04-25 11:14 32.17940 34.83765 124 ft 49 kts 287°
2026-04-25 11:14 32.18028 34.83454 109 ft 42 kts 283°
2026-04-25 11:14 32.18158 34.83015 154 ft 61 kts 284°
2026-04-25 11:15 32.18460 34.82779 283 ft 65 kts
2026-04-25 11:15 32.18901 34.83055 371 ft 74 kts 21°
2026-04-25 11:15 32.19294 34.83417 518 ft 72 kts 54°
2026-04-25 11:15 32.19185 34.84010 580 ft 82 kts 117°
2026-04-25 11:16 32.18418 34.85035 724 ft 87 kts 154°
2026-04-25 11:16 32.17859 34.85102 712 ft 74 kts 204°
2026-04-25 11:16 32.17666 34.84687 514 ft 63 kts 284°
2026-04-25 11:17 32.17810 34.84209 270 ft 62 kts 289°
2026-04-25 11:17 32.17940 34.83765 127 ft 48 kts 288°
2026-04-25 11:17 32.18014 34.83510 111 ft 22 kts 297°
2026-04-25 11:17 32.18057 34.83366 106 ft 15 kts 285°
2026-04-25 11:18 32.18042 34.83331 105 ft 0 kts 184°
2026-04-25 11:18 32.18041 34.83331 105 ft 0 kts 185°
2026-04-25 11:18 32.18038 34.83331 105 ft 1 kts 187°